createdAt,value
2022-11-03T00:01:44.800Z,1022
2022-11-03T00:05:49.821Z,1022
2022-11-03T00:07:49.213Z,1022
2022-11-03T00:11:43.985Z,1022
2022-11-03T00:13:43.977Z,1022
2022-11-03T00:15:50.480Z,1022
2022-11-03T00:17:43.989Z,1022
2022-11-03T00:19:43.977Z,1022
2022-11-03T00:21:50.049Z,1022
2022-11-03T00:23:47.376Z,1022
2022-11-03T00:25:47.091Z,1022
2022-11-03T00:29:43.980Z,1022
2022-11-03T00:31:44.003Z,1022
2022-11-03T00:35:47.332Z,1022
2022-11-03T00:37:43.990Z,1022
2022-11-03T00:41:44.115Z,1022
2022-11-03T00:43:44.708Z,1022
2022-11-03T00:45:48.611Z,1022
2022-11-03T00:47:50.745Z,1022
2022-11-03T00:49:46.403Z,1022
2022-11-03T00:53:43.849Z,1022
2022-11-03T00:55:43.984Z,1022
2022-11-03T00:59:43.960Z,1022
2022-11-03T01:01:45.621Z,1022
2022-11-03T01:03:48.709Z,1022
2022-11-03T01:05:43.975Z,1022
2022-11-03T01:07:44.953Z,1022
2022-11-03T01:09:50.037Z,1022
2022-11-03T01:11:44.010Z,1022
2022-11-03T01:13:46.054Z,1021
2022-11-03T01:17:46.982Z,1021
2022-11-03T01:19:43.981Z,1021
2022-11-03T01:23:44.058Z,1021
2022-11-03T01:25:43.968Z,1021
2022-11-03T01:29:46.020Z,1021
2022-11-03T01:31:43.820Z,1021
2022-11-03T01:33:50.418Z,1021
2022-11-03T01:35:43.826Z,1021
2022-11-03T01:37:47.158Z,1021
2022-11-03T01:41:44.028Z,1021
2022-11-03T01:43:44.018Z,1021
2022-11-03T01:47:48.236Z,1021
2022-11-03T01:49:43.885Z,1021
2022-11-03T01:53:46.096Z,1021
2022-11-03T01:55:47.411Z,1021
2022-11-03T01:59:45.170Z,1021
2022-11-03T02:01:44.151Z,1021
2022-11-03T02:05:44.001Z,1021
2022-11-03T02:07:45.174Z,1021
2022-11-03T02:11:44.004Z,1021
2022-11-03T02:13:47.107Z,1021
2022-11-03T02:15:49.598Z,1021
2022-11-03T02:17:44.002Z,1021
2022-11-03T02:19:43.824Z,1021
2022-11-03T02:21:50.089Z,1020
2022-11-03T02:23:50.344Z,1020
2022-11-03T02:25:43.995Z,1020
2022-11-03T02:29:44.237Z,1020
2022-11-03T02:31:47.799Z,1020
2022-11-03T02:33:50.490Z,1020
2022-11-03T02:35:45.781Z,1020
2022-11-03T02:37:43.819Z,1020
2022-11-03T02:41:43.991Z,1020
2022-11-03T02:43:49.735Z,1020
2022-11-03T02:47:43.983Z,1020
2022-11-03T02:49:43.862Z,1020
2022-11-03T02:51:49.985Z,1020
2022-11-03T02:53:43.996Z,1020
2022-11-03T02:55:47.980Z,1020
2022-11-03T02:57:50.579Z,1020
2022-11-03T02:59:43.827Z,1020
2022-11-03T03:01:44.068Z,1020
2022-11-03T03:05:43.829Z,1020
2022-11-03T03:07:48.470Z,1020
2022-11-03T03:09:50.438Z,1020
2022-11-03T03:11:44.613Z,1020
2022-11-03T03:13:47.430Z,1020
2022-11-03T03:17:47.572Z,1020
2022-11-03T03:19:43.995Z,1020
2022-11-03T03:23:43.833Z,1020
2022-11-03T03:25:47.069Z,1020
2022-11-03T03:27:50.533Z,1020
2022-11-03T03:29:43.841Z,1020
2022-11-03T03:31:43.988Z,1020
2022-11-03T03:35:43.873Z,1020
2022-11-03T03:37:43.842Z,1020
2022-11-03T03:39:49.903Z,1020
2022-11-03T03:41:46.652Z,1020
2022-11-03T03:43:43.857Z,1020
2022-11-03T03:45:50.053Z,1020
2022-11-03T03:47:43.993Z,1020
2022-11-03T03:49:50.033Z,1020
2022-11-03T03:51:50.558Z,1020
2022-11-03T03:53:43.850Z,1020
2022-11-03T03:55:43.881Z,1020
2022-11-03T03:57:50.749Z,1020
2022-11-03T03:59:43.860Z,1020
2022-11-03T04:01:43.965Z,1020
2022-11-03T04:05:46.072Z,1020
2022-11-03T04:07:44.041Z,1020
2022-11-03T04:09:50.097Z,1020
2022-11-03T04:11:43.865Z,1020
2022-11-03T04:13:43.922Z,1020
2022-11-03T04:17:45.296Z,1020
2022-11-03T04:19:46.067Z,1020
2022-11-03T04:21:46.274Z,1020
2022-11-03T04:23:49.682Z,1019
2022-11-03T04:25:43.865Z,1019
2022-11-03T04:29:46.009Z,1019
2022-11-03T04:31:43.898Z,1019
2022-11-03T04:35:43.861Z,1019
2022-11-03T04:37:46.459Z,1019
2022-11-03T04:41:44.249Z,1019
2022-11-03T04:43:44.023Z,1019
2022-11-03T04:47:43.867Z,1019
2022-11-03T04:49:43.866Z,1019
2022-11-03T04:51:51.004Z,1019
2022-11-03T04:53:49.879Z,1019
2022-11-03T04:55:43.868Z,1019
2022-11-03T04:59:43.902Z,1019
2022-11-03T05:01:50.251Z,1019
2022-11-03T05:05:43.843Z,1019
2022-11-03T05:07:43.867Z,1019
2022-11-03T05:09:50.472Z,1019
2022-11-03T05:11:44.166Z,1019
2022-11-03T05:13:47.398Z,1019
2022-11-03T05:15:49.947Z,1019
2022-11-03T05:17:43.837Z,1019
2022-11-03T05:19:43.878Z,1018
2022-11-03T05:21:48.731Z,1018
2022-11-03T05:23:43.836Z,1018
2022-11-03T05:25:47.097Z,1018
2022-11-03T05:27:51.016Z,1018
2022-11-03T05:29:50.222Z,1018
2022-11-03T05:31:43.873Z,1018
2022-11-03T05:33:50.705Z,1018
2022-11-03T05:35:48.335Z,1018
2022-11-03T05:37:43.906Z,1018
2022-11-03T05:39:50.125Z,1018
2022-11-03T05:41:46.723Z,1018
2022-11-03T05:43:49.966Z,1018
2022-11-03T05:45:50.377Z,1018
2022-11-03T05:47:45.322Z,1018
2022-11-03T05:49:43.841Z,1018
2022-11-03T05:53:43.878Z,1018
2022-11-03T05:55:43.843Z,1018
2022-11-03T05:57:50.602Z,1018
2022-11-03T05:59:43.882Z,1018
2022-11-03T06:01:46.128Z,1018
2022-11-03T06:03:48.637Z,1018
2022-11-03T06:05:43.858Z,1018
2022-11-03T06:07:44.052Z,1018
2022-11-03T06:09:50.622Z,1018
2022-11-03T06:11:43.856Z,1018
2022-11-03T06:13:47.756Z,1018
2022-11-03T06:17:43.866Z,1018
2022-11-03T06:19:49.310Z,1018
2022-11-03T06:23:48.764Z,1018
2022-11-03T06:25:43.854Z,1018
2022-11-03T06:27:49.634Z,1018
2022-11-03T06:29:44.046Z,1018
2022-11-03T06:31:44.056Z,1018
2022-11-03T06:35:46.772Z,1018
2022-11-03T06:37:43.878Z,1018
2022-11-03T06:39:50.671Z,1018
2022-11-03T06:41:45.706Z,1018
2022-11-03T06:43:46.057Z,1018
2022-11-03T06:49:43.908Z,1018
2022-11-03T06:51:49.169Z,1018
2022-11-03T06:53:43.857Z,1018
2022-11-03T06:55:43.909Z,1018
2022-11-03T06:57:50.052Z,1018
2022-11-03T06:59:43.856Z,1018
2022-11-03T07:01:43.985Z,1018
2022-11-03T07:03:50.590Z,1018
2022-11-03T07:05:43.880Z,1018
2022-11-03T07:07:45.707Z,1018
2022-11-03T07:11:43.866Z,1018
2022-11-03T07:13:49.769Z,1018
2022-11-03T07:15:50.645Z,1018
2022-11-03T07:17:43.855Z,1018
2022-11-03T07:19:43.871Z,1018
2022-11-03T07:21:49.960Z,1018
2022-11-03T07:23:50.043Z,1018
2022-11-03T07:25:43.882Z,1018
2022-11-03T07:29:43.865Z,1018
2022-11-03T07:31:43.862Z,1018
2022-11-03T07:36:00.788Z,1018
2022-11-03T07:37:43.867Z,1018
2022-11-03T07:39:50.230Z,1018
2022-11-03T07:41:43.914Z,1018
2022-11-03T07:43:44.217Z,1018
2022-11-03T07:45:50.707Z,1018
2022-11-03T07:47:44.229Z,1018
2022-11-03T07:49:43.893Z,1018
2022-11-03T07:53:44.013Z,1018
2022-11-03T07:55:46.763Z,1017
2022-11-03T07:57:50.105Z,1017
2022-11-03T07:59:43.914Z,1017
2022-11-03T08:01:44.168Z,1017
2022-11-03T08:05:43.864Z,1017
2022-11-03T08:07:48.481Z,1017
2022-11-03T08:11:43.917Z,1017
2022-11-03T08:13:43.868Z,1017
2022-11-03T08:17:43.921Z,1017
2022-11-03T08:19:43.865Z,1017
2022-11-03T08:21:48.407Z,1017
2022-11-03T08:23:47.257Z,1017
2022-11-03T08:25:46.270Z,1017
2022-11-03T08:27:50.433Z,1017
2022-11-03T08:29:43.918Z,1017
2022-11-03T08:31:46.107Z,1017
2022-11-03T08:35:51.256Z,1017
2022-11-03T08:40:51.298Z,1017
2022-11-03T08:42:43.836Z,1017
2022-11-03T08:48:25.723Z,1017
2022-11-03T08:50:22.438Z,1017
2022-11-03T08:52:19.160Z,1017
2022-11-03T08:54:25.573Z,1017
2022-11-03T08:56:22.255Z,1017
2022-11-03T08:58:19.235Z,1017
2022-11-03T09:00:22.459Z,1017
2022-11-03T09:02:19.214Z,1017
2022-11-03T09:04:19.231Z,1016
2022-11-03T09:06:25.488Z,1016
2022-11-03T09:10:20.266Z,1016
2022-11-03T09:12:23.652Z,1016
2022-11-03T09:14:25.381Z,1016
2022-11-03T09:18:24.502Z,1016
2022-11-03T09:20:19.175Z,1016
2022-11-03T09:22:19.229Z,1016
2022-11-03T09:24:19.127Z,1016
2022-11-03T09:26:19.193Z,1016
2022-11-03T09:28:22.359Z,1016
2022-11-03T09:30:25.079Z,1016
2022-11-03T09:32:23.127Z,1016
2022-11-03T09:34:20.595Z,1016
2022-11-03T09:36:19.285Z,1016
2022-11-03T09:38:22.192Z,1016
2022-11-03T09:40:19.173Z,1016
2022-11-03T09:42:19.284Z,1016
2022-11-03T09:44:22.335Z,1016
2022-11-03T09:46:22.578Z,1016
2022-11-03T09:48:24.032Z,1016
2022-11-03T09:50:19.589Z,1016
2022-11-03T09:54:20.574Z,1016
2022-11-03T09:56:20.859Z,1016
2022-11-03T09:58:22.503Z,1016
2022-11-03T10:00:19.237Z,1016
2022-11-03T10:02:19.326Z,1016
2022-11-03T10:06:24.919Z,1016
2022-11-03T10:08:25.281Z,1016
2022-11-03T10:10:19.388Z,1016
2022-11-03T10:12:19.243Z,1016
2022-11-03T10:14:24.980Z,1016
2022-11-03T10:16:23.100Z,1016
2022-11-03T10:18:19.132Z,1016
2022-11-03T10:20:22.495Z,1016
2022-11-03T10:22:20.584Z,1016
2022-11-03T10:24:24.998Z,1016
2022-11-03T10:26:19.276Z,1016
2022-11-03T10:28:25.475Z,1016
2022-11-03T10:30:19.127Z,1016
2022-11-03T10:32:19.166Z,1015
2022-11-03T10:34:23.343Z,1015
2022-11-03T10:36:20.575Z,1015
2022-11-03T10:38:19.165Z,1015
2022-11-03T10:40:46.467Z,1015
2022-11-03T10:42:22.092Z,1016
2022-11-03T10:44:21.578Z,1016
2022-11-03T10:46:48.896Z,1015
2022-11-03T10:48:24.616Z,1015
2022-11-03T10:50:24.740Z,1015
2022-11-03T10:52:19.323Z,1015
2022-11-03T10:54:20.456Z,1015
2022-11-03T10:56:24.078Z,1015
2022-11-03T10:58:21.445Z,1015
2022-11-03T11:00:19.128Z,1015
2022-11-03T11:02:24.429Z,1015
2022-11-03T11:04:21.296Z,1015
2022-11-03T11:06:19.248Z,1015
2022-11-03T11:08:25.159Z,1015
2022-11-03T11:10:19.158Z,1015
2022-11-03T11:12:19.273Z,1015
2022-11-03T11:14:23.427Z,1015
2022-11-03T11:16:19.181Z,1015
2022-11-03T11:18:22.852Z,1015
2022-11-03T11:20:19.273Z,1015
2022-11-03T11:22:19.336Z,1015
2022-11-03T11:24:20.957Z,1015
2022-11-03T11:26:21.001Z,1015
2022-11-03T11:28:19.270Z,1015
2022-11-03T11:30:22.480Z,1015
2022-11-03T11:32:19.260Z,1015
2022-11-03T11:34:19.143Z,1015
2022-11-03T11:36:19.173Z,1015
2022-11-03T11:38:25.082Z,1015
2022-11-03T11:40:24.724Z,1015
2022-11-03T11:42:19.274Z,1015
2022-11-03T11:44:19.270Z,1015
2022-11-03T11:46:22.765Z,1015
2022-11-03T11:48:23.730Z,1015
2022-11-03T11:50:19.181Z,1015
2022-11-03T11:52:20.850Z,1015
2022-11-03T11:54:21.356Z,1015
2022-11-03T11:56:24.987Z,1015
2022-11-03T11:58:19.609Z,1015
2022-11-03T12:00:20.464Z,1015
2022-11-03T12:02:19.138Z,1015
2022-11-03T12:04:20.078Z,1015
2022-11-03T12:06:19.304Z,1015
2022-11-03T12:08:22.567Z,1015
2022-11-03T12:10:22.370Z,1015
2022-11-03T12:12:19.301Z,1015
2022-11-03T12:14:19.254Z,1014
2022-11-03T12:16:23.294Z,1014
2022-11-03T12:18:19.293Z,1014
2022-11-03T12:20:20.661Z,1014
2022-11-03T12:22:19.332Z,1014
2022-11-03T12:26:21.031Z,1014
2022-11-03T12:28:19.622Z,1014
2022-11-03T12:30:19.318Z,1014
2022-11-03T12:32:33.218Z,1014
2022-11-03T12:34:19.156Z,1014
2022-11-03T12:36:19.218Z,1014
2022-11-03T12:38:22.377Z,1014
2022-11-03T12:40:24.852Z,1014
2022-11-03T12:42:19.319Z,1014
2022-11-03T12:44:20.685Z,1014
2022-11-03T12:48:25.308Z,1014
2022-11-03T12:50:22.334Z,1014
2022-11-03T12:52:19.144Z,1014
2022-11-03T12:54:19.142Z,1014
2022-11-03T12:56:19.182Z,1014
2022-11-03T12:58:19.155Z,1014
2022-11-03T13:02:19.322Z,1014
2022-11-03T13:04:19.292Z,1013
2022-11-03T13:06:19.295Z,1013
2022-11-03T13:08:19.353Z,1013
2022-11-03T13:10:21.888Z,1013
2022-11-03T13:12:19.304Z,1013
2022-11-03T13:14:19.913Z,1013
2022-11-03T13:16:19.276Z,1013
2022-11-03T13:18:22.878Z,1013
2022-11-03T13:20:19.537Z,1013
2022-11-03T13:22:19.261Z,1013
2022-11-03T13:24:21.952Z,1013
2022-11-03T13:26:24.697Z,1013
2022-11-03T13:28:25.331Z,1013
2022-11-03T13:30:19.387Z,1013
2022-11-03T13:32:21.219Z,1013
2022-11-03T13:34:22.713Z,1013
2022-11-03T13:36:19.385Z,1013
2022-11-03T13:38:19.346Z,1013
2022-11-03T13:40:42.980Z,1013
2022-11-03T13:42:19.318Z,1013
2022-11-03T13:44:19.331Z,1013
2022-11-03T13:46:23.047Z,1013
2022-11-03T13:49:09.037Z,1013
2022-11-03T13:50:21.248Z,1013
2022-11-03T13:52:19.312Z,1013
2022-11-03T13:56:22.042Z,1013
2022-11-03T14:00:19.288Z,1012
2022-11-03T14:04:44.358Z,1013
2022-11-03T14:06:19.275Z,1013
2022-11-03T14:08:25.026Z,1013
2022-11-03T14:10:19.749Z,1012
2022-11-03T14:12:19.282Z,1012
2022-11-03T14:14:19.364Z,1012
2022-11-03T14:16:19.289Z,1012
2022-11-03T14:18:19.335Z,1012
2022-11-03T14:20:19.378Z,1012
2022-11-03T14:22:19.539Z,1012
2022-11-03T14:24:20.963Z,1012
2022-11-03T14:26:24.110Z,1012
2022-11-03T14:28:25.705Z,1012
2022-11-03T14:30:19.189Z,1012
2022-11-03T14:32:19.352Z,1012
2022-11-03T14:34:19.335Z,1012
2022-11-03T14:36:19.282Z,1012
2022-11-03T14:38:19.316Z,1012
2022-11-03T14:40:21.854Z,1012
2022-11-03T14:42:19.321Z,1012
2022-11-03T14:44:19.327Z,1012
2022-11-03T14:46:19.391Z,1012
2022-11-03T14:48:20.019Z,1012
2022-11-03T14:50:19.287Z,1012
2022-11-03T14:52:19.407Z,1012
2022-11-03T14:54:21.406Z,1012
2022-11-03T14:56:19.320Z,1012
2022-11-03T14:58:19.361Z,1012
2022-11-03T15:00:19.685Z,1012
2022-11-03T15:02:19.581Z,1012
2022-11-03T15:04:19.313Z,1012
2022-11-03T15:06:19.332Z,1011
2022-11-03T15:06:58.427Z,1011
2022-11-03T15:08:58.145Z,1011
2022-11-03T15:10:58.020Z,1011
2022-11-03T15:12:58.029Z,1011
2022-11-03T15:14:58.017Z,1011
2022-11-03T15:16:58.018Z,1011
2022-11-03T15:18:58.025Z,1011
2022-11-03T15:20:58.017Z,1011
2022-11-03T15:26:58.022Z,1011
2022-11-03T15:28:58.767Z,1011
2022-11-03T15:32:58.494Z,1011
2022-11-03T15:34:58.493Z,1011
2022-11-03T15:36:58.029Z,1011
2022-11-03T15:40:58.022Z,1010
2022-11-03T15:43:02.733Z,1010
2022-11-03T15:44:58.028Z,1010
2022-11-03T15:46:58.499Z,1010
2022-11-03T15:48:58.083Z,1010
2022-11-03T15:50:58.021Z,1010
2022-11-03T15:52:58.023Z,1010
2022-11-03T15:54:58.030Z,1010
2022-11-03T15:56:58.496Z,1010
2022-11-03T15:58:58.760Z,1010
2022-11-03T16:00:58.054Z,1010
2022-11-03T16:02:58.468Z,1010
2022-11-03T16:04:58.031Z,1010
2022-11-03T16:07:08.336Z,1010
2022-11-03T16:08:58.032Z,1010
2022-11-03T16:10:58.614Z,1010
2022-11-03T16:12:58.488Z,1010
2022-11-03T16:14:58.028Z,1010
2022-11-03T16:16:58.033Z,1010
2022-11-03T16:18:58.031Z,1010
2022-11-03T16:20:58.029Z,1009
2022-11-03T16:22:58.033Z,1009
2022-11-03T16:24:58.031Z,1009
2022-11-03T16:26:58.031Z,1009
2022-11-03T16:28:58.033Z,1009
2022-11-03T16:30:58.491Z,1009
2022-11-03T16:34:58.027Z,1009
2022-11-03T16:36:58.492Z,1009
2022-11-03T16:38:58.033Z,1009
2022-11-03T16:40:58.030Z,1009
2022-11-03T16:42:58.031Z,1009
2022-11-03T16:44:58.032Z,1009
2022-11-03T16:46:58.792Z,1009
2022-11-03T16:52:58.029Z,1009
2022-11-03T16:54:58.029Z,1009
2022-11-03T16:56:58.028Z,1009
2022-11-03T16:58:58.029Z,1009
2022-11-03T17:00:58.088Z,1009
2022-11-03T17:02:58.057Z,1009
2022-11-03T17:04:58.485Z,1009
2022-11-03T17:06:58.032Z,1009
2022-11-03T17:08:58.480Z,1009
2022-11-03T17:12:58.027Z,1008
2022-11-03T17:14:58.025Z,1008
2022-11-03T17:16:58.030Z,1008
2022-11-03T17:18:58.037Z,1008
2022-11-03T17:20:58.026Z,1008
2022-11-03T17:22:58.032Z,1008
2022-11-03T17:24:58.048Z,1008
2022-11-03T17:28:58.034Z,1008
2022-11-03T17:30:58.029Z,1008
2022-11-03T17:32:58.036Z,1008
2022-11-03T17:34:58.037Z,1008
2022-11-03T17:38:58.425Z,1008
2022-11-03T17:40:58.396Z,1008
2022-11-03T17:42:58.040Z,1008
2022-11-03T17:44:58.039Z,1008
2022-11-03T17:48:58.029Z,1008
2022-11-03T17:50:58.437Z,1008
2022-11-03T17:52:58.034Z,1008
2022-11-03T17:54:58.036Z,1008
2022-11-03T17:56:58.420Z,1008
2022-11-03T17:58:58.779Z,1008
2022-11-03T18:00:58.549Z,1008
2022-11-03T18:02:58.037Z,1007
2022-11-03T18:04:58.041Z,1007
2022-11-03T18:06:58.034Z,1007
2022-11-03T18:10:58.042Z,1007
2022-11-03T18:12:58.036Z,1007
2022-11-03T18:14:58.798Z,1007
2022-11-03T18:16:58.042Z,1007
2022-11-03T18:18:58.048Z,1007
2022-11-03T18:20:58.040Z,1007
2022-11-03T18:22:58.041Z,1007
2022-11-03T18:24:58.055Z,1007
2022-11-03T18:26:58.852Z,1007
2022-11-03T18:28:58.059Z,1007
2022-11-03T18:30:58.041Z,1007
2022-11-03T18:32:58.803Z,1007
2022-11-03T18:34:58.047Z,1007
2022-11-03T18:36:58.034Z,1007
2022-11-03T18:38:58.049Z,1007
2022-11-03T18:40:58.090Z,1007
2022-11-03T18:42:58.044Z,1007
2022-11-03T18:45:02.362Z,1007
2022-11-03T18:46:58.522Z,1007
2022-11-03T18:48:58.440Z,1007
2022-11-03T18:50:58.438Z,1007
2022-11-03T18:52:58.498Z,1007
2022-11-03T18:54:58.047Z,1007
2022-11-03T18:56:58.738Z,1007
2022-11-03T18:58:58.057Z,1007
2022-11-03T19:00:58.059Z,1007
2022-11-03T19:04:58.043Z,1007
2022-11-03T19:08:58.433Z,1007
2022-11-03T19:10:58.052Z,1007
2022-11-03T19:12:58.036Z,1007
2022-11-03T19:17:21.629Z,1007
2022-11-03T19:18:58.039Z,1006
2022-11-03T19:22:58.046Z,1006
2022-11-03T19:24:58.049Z,1006
2022-11-03T19:26:58.055Z,1006
2022-11-03T19:28:58.465Z,1006
2022-11-03T19:30:58.505Z,1006
2022-11-03T19:32:58.055Z,1006
2022-11-03T19:34:58.041Z,1006
2022-11-03T19:36:58.436Z,1006
2022-11-03T19:38:58.518Z,1006
2022-11-03T19:40:58.054Z,1006
2022-11-03T19:42:58.514Z,1006
2022-11-03T19:44:58.160Z,1006
2022-11-03T19:46:58.052Z,1006
2022-11-03T19:48:58.042Z,1006
2022-11-03T19:50:58.514Z,1006
2022-11-03T19:52:58.516Z,1006
2022-11-03T19:54:58.052Z,1006
2022-11-03T19:56:58.047Z,1006
2022-11-03T19:58:58.051Z,1006
2022-11-03T20:00:58.991Z,1006
2022-11-03T20:02:58.043Z,1006
2022-11-03T20:04:58.053Z,1006
2022-11-03T20:06:58.508Z,1006
2022-11-03T20:08:58.050Z,1006
2022-11-03T20:10:58.047Z,1006
2022-11-03T20:14:58.054Z,1006
2022-11-03T20:16:58.084Z,1006
2022-11-03T20:18:58.059Z,1006
2022-11-03T20:20:58.047Z,1006
2022-11-03T20:22:58.054Z,1006
2022-11-03T20:24:58.054Z,1005
2022-11-03T20:26:58.051Z,1005
2022-11-03T20:28:58.079Z,1005
2022-11-03T20:30:58.052Z,1005
2022-11-03T20:32:58.054Z,1005
2022-11-03T20:34:58.055Z,1005
2022-11-03T20:37:01.256Z,1005
2022-11-03T20:38:58.077Z,1005
2022-11-03T20:40:58.654Z,1005
2022-11-03T20:42:58.507Z,1005
2022-11-03T20:44:58.395Z,1005
2022-11-03T20:46:58.057Z,1005
2022-11-03T20:48:58.055Z,1005
2022-11-03T20:50:58.510Z,1005
2022-11-03T20:52:58.055Z,1005
2022-11-03T20:54:58.056Z,1005
2022-11-03T20:56:58.061Z,1005
2022-11-03T20:58:58.522Z,1005
2022-11-03T21:00:58.559Z,1005
2022-11-03T21:02:58.057Z,1005
2022-11-03T21:04:58.820Z,1005
2022-11-03T21:06:58.452Z,1005
2022-11-03T21:10:58.069Z,1005
2022-11-03T21:12:58.079Z,1005
2022-11-03T21:14:58.793Z,1005
2022-11-03T21:18:16.027Z,1005
2022-11-03T21:20:15.864Z,1005
2022-11-03T21:24:15.629Z,1005
2022-11-03T21:26:15.641Z,1005
2022-11-03T21:28:17.620Z,1005
2022-11-03T21:30:15.571Z,1005
2022-11-03T21:32:15.859Z,1005
2022-11-03T21:34:17.303Z,1005
2022-11-03T21:36:15.547Z,1005
2022-11-03T21:38:15.758Z,1005
2022-11-03T21:40:16.138Z,1005
2022-11-03T21:42:15.643Z,1005
2022-11-03T21:44:15.666Z,1005
2022-11-03T21:46:16.099Z,1005
2022-11-03T21:48:16.179Z,1005
2022-11-03T21:50:15.825Z,1005
2022-11-03T21:52:16.387Z,1005
2022-11-03T21:54:15.530Z,1005
2022-11-03T21:56:16.344Z,1005
2022-11-03T22:00:15.672Z,1005
2022-11-03T22:02:16.287Z,1005
2022-11-03T22:04:16.304Z,1005
2022-11-03T22:06:16.228Z,1005
2022-11-03T22:08:15.708Z,1005
2022-11-03T22:10:16.183Z,1005
2022-11-03T22:12:15.656Z,1005
2022-11-03T22:14:16.312Z,1005
2022-11-03T22:16:16.434Z,1005
2022-11-03T22:18:16.726Z,1005
2022-11-03T22:20:16.339Z,1005
2022-11-03T22:22:16.073Z,1005
2022-11-03T22:24:16.835Z,1005
2022-11-03T22:26:16.596Z,1005
2022-11-03T22:28:17.450Z,1005
2022-11-03T22:30:15.972Z,1005
2022-11-03T22:32:16.397Z,1005
2022-11-03T22:34:15.707Z,1005
2022-11-03T22:36:21.410Z,1005
2022-11-03T22:38:15.690Z,1005
2022-11-03T22:40:16.491Z,1005
2022-11-03T22:42:16.168Z,1005
2022-11-03T22:44:16.454Z,1005
2022-11-03T22:46:16.192Z,1005
2022-11-03T22:48:15.639Z,1005
2022-11-03T22:50:16.347Z,1006
2022-11-03T22:52:17.064Z,1006
2022-11-03T22:54:15.909Z,1006
2022-11-03T22:56:15.605Z,1006
2022-11-03T22:58:16.352Z,1006
2022-11-03T23:02:15.660Z,1006
2022-11-03T23:04:16.339Z,1006
2022-11-03T23:06:16.054Z,1006
2022-11-03T23:08:16.140Z,1006
2022-11-03T23:10:16.309Z,1006
2022-11-03T23:12:16.499Z,1006
2022-11-03T23:14:15.865Z,1006
2022-11-03T23:16:16.437Z,1006
2022-11-03T23:18:17.661Z,1006
2022-11-03T23:20:15.750Z,1006
2022-11-03T23:22:16.278Z,1006
2022-11-03T23:24:18.093Z,1006
2022-11-03T23:26:16.470Z,1006
2022-11-03T23:28:16.002Z,1006
2022-11-03T23:30:16.613Z,1006
2022-11-03T23:32:16.301Z,1006
2022-11-03T23:34:16.714Z,1006
2022-11-03T23:36:16.412Z,1006
2022-11-03T23:40:18.739Z,1006
2022-11-03T23:42:15.865Z,1006
2022-11-03T23:44:15.549Z,1006
2022-11-03T23:46:16.651Z,1006
2022-11-03T23:48:15.858Z,1006
2022-11-03T23:50:16.161Z,1006
2022-11-03T23:52:16.357Z,1006
2022-11-03T23:54:16.842Z,1007
2022-11-03T23:56:15.576Z,1006
2022-11-03T23:58:16.160Z,1006
